AirNav   Air Wisconsin Airman Trainee
 
 958 users online  

44CL Balsdon Airport
Grimes, California, USA

GOING TO GRIMES?


FAA INFORMATION EFFECTIVE 23 MAY 2019

Location

FAA Identifier: 44CL
Lat/Long: 39-02-52.2750N / 121-57-01.4000W
39-02.871250N / 121-57.023333W
39.0478542 / -121.9503889
(estimated)
Elevation: 35 ft. / 11 m (estimated)
From city: 3 miles WSW of GRIMES, CA
Time zone: UTC -7 (UTC -8 during Standard Time)
Zip code: 95912

Airport Operations

Airport use: Private use. Permission required prior to landing
Activation date: 04/2016
Control tower: no
ARTCC: OAKLAND CENTER
FSS: RANCHO MURIETA FLIGHT SERVICE STATION
Attendance: MON-FRI 0700-1600
Wind indicator: yes
Segmented circle: no

Airport Communications

WX ASOS at MYV (18 nm E): 118.475 (530-742-0695)

Nearby radio navigation aids

VOR radial/distance  VOR name  Freq  Var
ILAr093/3.8WILLIAMS VORTAC114.4018E
MYVr244/17.8MARYSVILLE VOR/DME110.8016E
MCCr295/34.2MC CLELLAN VOR/DME109.2017E

Airport Services

Runway Information

Runway 12/30

Dimensions: 2323 x 30 ft. / 708 x 9 m
Surface: asphalt
RUNWAY 12  RUNWAY 30
Latitude: 39-03.018000N39-02.724500N
Longitude: 121-57.180833W121-56.865833W
Elevation: 42.0 ft.33.0 ft.
Traffic pattern: leftleft
Touchdown point: yes, no lightsyes, no lights

Airport Ownership and Management from official FAA records

Ownership: Privately-owned
Owner: STRAIN BASIN LAND
P.O. BOX 807
ARBUCKLE, CA 95912
Phone 530-476-3286
Manager: DERICK STRAIN
P.O. BOX 807
ARBUCKLE, CA 95912
Phone 530-476-3286

Instrument Procedures

There are no published instrument procedures at 44CL.

Some nearby airports with instrument procedures:

O08 - Colusa County Airport (8 nm N)
KMYV - Yuba County Airport (18 nm E)
O41 - Watts-Woodland Airport (23 nm S)
KBAB - Beale Air Force Base (25 nm E)
KSMF - Sacramento International Airport (27 nm SE)
 
Loc | Ops | Rwys | IFR | FBO | Links
Com | Nav | Svcs | Stats | Notes
Aerial photo
No photo
 
Airport distance calculator
Flying to Balsdon Airport? Find the distance to fly.

From to 44CL

Sunrise and sunset
Times for 18-Jun-2019
 Local
(UTC-7)
 Zulu
(UTC)
Morning civil twilight05:1012:10
Sunrise05:4312:43
Sunset20:3503:35
Evening civil twilight21:0704:07

Current date and time
Zulu (UTC)  19-Jun-2019 01:44:51
Local (UTC-7)  18-Jun-2019 18:44:51
 
METAR
KMYV 
18nm E 
190053Z AUTO 35005KT 10SM CLR 39/12 A2978 RMK AO2 SLP086 T03940117
KBAB 
25nm E 
190058Z AUTO 26006KT 9SM CLR 38/13 A2977 RMK AO2 SLP083 T03820127 $
KSMF 
27nm SE 
190053Z 19011KT 10SM CLR 37/17 A2977 RMK AO2 SLP080 T03670172
KLHM 
29nm E 
190135Z AUTO 26004KT 10SM CLR 37/12 A2977 RMK AO1
KOVE 
31nm NE 
190053Z AUTO 28008KT 10SM CLR 38/13 A2978 RMK AO2 SLP085 T03780128
KEDU 
32nm S 
190135Z AUTO 20006KT 10SM CLR 39/23 A2979 RMK AO1
KMCC 
34nm SE 
190140Z AUTO 23010KT 9SM CLR 36/14 A2979 RMK AO2
TAF
KBAB 
25nm E 
181901Z 1819/2001 VRB06KT 9999 SKC QNH2977INS TX37/1823Z TN17/1911Z
KSMF 
27nm SE 
181739Z 1818/1918 34008KT P6SM SKC FM190300 18010KT P6SM SKC FM191600 16005KT P6SM SKC
NOTAMs
Click for the latest NOTAMs
NOTAMs are issued by the DoD/FAA and will open in a separate window not controlled by AirNav.

 

 
 

Would you like to see your business listed on this page?

 If your business provides an interesting product or service to pilots, flight crews, aircraft, or users of the Balsdon Airport, you should consider listing it here.  To start the listing process, click on the button below
 
Add a business
 

Other Pages about Balsdon Airport

Update a link
 
Copyright © AirNav, LLC. All rights reserved. Privacy Policy  Contact